createdAt,value
2022-10-14T00:00:08.567Z,70.57
2022-10-14T00:03:20.406Z,70.19
2022-10-14T00:06:30.466Z,69.61
2022-10-14T00:09:36.114Z,69.84
2022-10-14T00:12:41.693Z,70.13
2022-10-14T00:15:50.068Z,70.11
2022-10-14T00:18:56.799Z,70.83
2022-10-14T00:22:02.475Z,70.54
2022-10-14T00:25:08.932Z,70.19
2022-10-14T00:28:30.045Z,69.89
2022-10-14T00:31:39.280Z,69.69
2022-10-14T00:34:45.208Z,69.52
2022-10-14T00:37:50.982Z,71.26
2022-10-14T00:41:02.055Z,71.16
2022-10-14T00:44:11.560Z,73.01
2022-10-14T00:47:23.117Z,72.34
2022-10-14T00:50:29.070Z,71.47
2022-10-14T00:53:35.669Z,72.61
2022-10-14T00:56:41.692Z,71.06
2022-10-14T00:59:49.542Z,70.20
2022-10-14T01:03:00.246Z,70.27
2022-10-14T01:06:32.070Z,69.37
2022-10-14T01:09:50.932Z,70.15
2022-10-14T01:13:28.049Z,68.86
2022-10-14T01:16:55.473Z,71.22
2022-10-14T01:20:45.999Z,70.23
2022-10-14T01:24:36.120Z,70.76
2022-10-14T01:28:16.184Z,72.61
2022-10-14T01:31:33.677Z,71.46
2022-10-14T01:34:52.602Z,70.61
2022-10-14T01:38:08.157Z,73.01
2022-10-14T01:41:24.079Z,73.06
2022-10-14T01:44:39.210Z,73.50
2022-10-14T01:47:59.857Z,72.63
2022-10-14T01:51:23.442Z,72.35
2022-10-14T01:54:38.002Z,70.99
2022-10-14T01:57:50.628Z,71.13
2022-10-14T02:00:57.730Z,69.89
2022-10-14T02:04:06.722Z,70.89
2022-10-14T02:07:32.187Z,70.79
2022-10-14T02:11:04.510Z,74.02
2022-10-14T02:14:27.998Z,73.18
2022-10-14T02:17:45.151Z,71.78
2022-10-14T02:21:08.429Z,72.88
2022-10-14T02:24:24.588Z,72.36
2022-10-14T02:27:41.090Z,73.80
2022-10-14T02:30:55.238Z,75.22
2022-10-14T02:34:14.590Z,75.31
2022-10-14T02:37:26.721Z,75.86
2022-10-14T02:40:42.808Z,75.29
2022-10-14T02:43:49.660Z,74.17
2022-10-14T02:46:57.436Z,74.73
2022-10-14T02:50:11.050Z,74.12
2022-10-14T02:53:20.927Z,75.17
2022-10-14T02:56:27.302Z,75.96
2022-10-14T02:59:32.854Z,76.62
2022-10-14T03:02:41.640Z,76.46
2022-10-14T03:05:47.396Z,76.44
2022-10-14T03:08:57.664Z,76.64
2022-10-14T03:12:03.998Z,75.95
2022-10-14T03:15:12.790Z,76.25
2022-10-14T03:18:19.282Z,76.73
2022-10-14T03:21:27.636Z,76.67
2022-10-14T03:24:36.297Z,75.68
2022-10-14T03:28:12.853Z,77.88
2022-10-14T03:31:41.648Z,78.23
2022-10-14T03:35:13.494Z,77.54
2022-10-14T03:38:22.482Z,79.45
2022-10-14T03:41:32.170Z,94.78
2022-10-14T03:44:38.862Z,93.37
2022-10-14T03:47:53.593Z,97.72
2022-10-14T03:50:59.751Z,92.11
2022-10-14T03:54:05.604Z,86.15
2022-10-14T03:57:14.667Z,78.94
2022-10-14T04:00:34.198Z,76.98
2022-10-14T04:04:07.426Z,76.86
2022-10-14T04:07:14.273Z,78.24
2022-10-14T04:10:27.542Z,75.52
2022-10-14T04:13:39.006Z,74.14
2022-10-14T04:16:48.897Z,73.46
2022-10-14T04:19:58.518Z,73.98
2022-10-14T04:23:05.045Z,73.94
2022-10-14T04:26:13.981Z,74.27
2022-10-14T04:29:25.536Z,74.24
2022-10-14T04:32:42.818Z,77.16
2022-10-14T04:35:49.600Z,94.80
2022-10-14T04:39:03.184Z,107.72
2022-10-14T04:42:09.102Z,100.27
2022-10-14T04:45:18.380Z,94.20
2022-10-14T04:48:30.269Z,83.65
2022-10-14T04:51:36.340Z,78.11
2022-10-14T04:55:00.681Z,75.01
2022-10-14T04:58:13.542Z,69.33
2022-10-14T05:01:24.298Z,70.21
2022-10-14T05:04:31.324Z,68.53
2022-10-14T05:07:39.762Z,69.87
2022-10-14T05:11:12.108Z,72.94
2022-10-14T05:14:23.079Z,75.23
2022-10-14T05:17:44.652Z,75.63
2022-10-14T05:20:53.413Z,79.09
2022-10-14T05:24:01.896Z,80.57
2022-10-14T05:27:11.236Z,78.52
2022-10-14T05:30:17.684Z,80.75
2022-10-14T05:33:30.259Z,80.45
2022-10-14T05:36:36.370Z,78.85
2022-10-14T05:39:42.153Z,77.46
2022-10-14T05:42:47.859Z,77.07
2022-10-14T05:45:54.278Z,76.85
2022-10-14T05:49:06.202Z,78.48
2022-10-14T05:52:16.032Z,75.64
2022-10-14T05:55:25.398Z,73.84
2022-10-14T05:58:38.654Z,75.01
2022-10-14T06:01:45.208Z,73.35
2022-10-14T06:04:53.419Z,70.98
2022-10-14T06:07:59.219Z,71.18
2022-10-14T06:11:07.630Z,71.81
2022-10-14T06:14:13.401Z,70.43
2022-10-14T06:17:19.771Z,69.52
2022-10-14T06:20:31.052Z,68.42
2022-10-14T06:23:36.882Z,68.42
2022-10-14T06:26:42.493Z,68.04
2022-10-14T06:29:50.305Z,67.46
2022-10-14T06:32:56.743Z,65.94
2022-10-14T06:36:07.229Z,68.33
2022-10-14T06:39:13.246Z,69.68
2022-10-14T06:42:19.088Z,68.32
2022-10-14T06:45:24.639Z,68.81
2022-10-14T06:48:30.422Z,70.04
2022-10-14T06:51:39.073Z,68.98
2022-10-14T06:54:48.184Z,69.20
2022-10-14T06:57:54.141Z,71.58
2022-10-14T07:01:05.484Z,71.60
2022-10-14T07:04:11.245Z,68.98
2022-10-14T07:07:19.454Z,71.23
2022-10-14T07:10:25.114Z,69.59
2022-10-14T07:13:30.950Z,69.83
2022-10-14T07:16:36.575Z,71.25
2022-10-14T07:19:42.164Z,71.23
2022-10-14T07:22:52.702Z,69.82
2022-10-14T07:26:00.196Z,70.51
2022-10-14T07:29:07.669Z,69.68
2022-10-14T07:32:13.211Z,69.48
2022-10-14T07:35:19.867Z,72.25
2022-10-14T07:38:28.091Z,72.42
2022-10-14T07:41:33.741Z,72.00
2022-10-14T07:44:40.102Z,70.92
2022-10-14T07:47:45.901Z,70.05
2022-10-14T07:50:53.651Z,70.31
2022-10-14T07:54:05.005Z,71.00
2022-10-14T07:57:10.774Z,69.51
2022-10-14T08:00:16.829Z,69.38
2022-10-14T08:03:24.642Z,68.09
2022-10-14T08:06:30.726Z,68.47
2022-10-14T08:09:40.520Z,66.42
2022-10-14T08:12:46.476Z,63.35
2022-10-14T08:15:52.141Z,62.03
2022-10-14T08:19:00.750Z,63.20
2022-10-14T08:22:09.377Z,73.18
2022-10-14T08:25:17.819Z,84.49
2022-10-14T08:28:23.510Z,89.06
2022-10-14T08:31:29.260Z,91.51
2022-10-14T08:34:34.833Z,91.60
2022-10-14T08:37:40.519Z,84.39
2022-10-14T08:41:10.494Z,77.08
2022-10-14T08:44:25.731Z,74.53
2022-10-14T08:47:42.056Z,71.69
2022-10-14T08:50:56.664Z,68.41
2022-10-14T08:54:15.445Z,59.70
2022-10-14T08:57:29.578Z,55.10
2022-10-14T09:00:38.970Z,52.91
2022-10-14T09:03:45.739Z,49.07
2022-10-14T09:06:56.294Z,52.03
2022-10-14T09:10:10.776Z,55.34
2022-10-14T09:13:34.172Z,62.66
2022-10-14T09:16:48.204Z,59.25
2022-10-14T09:20:16.201Z,61.55
2022-10-14T09:23:25.896Z,60.61
2022-10-14T09:26:43.723Z,56.97
2022-10-14T09:29:57.591Z,49.55
2022-10-14T09:33:03.727Z,43.62
2022-10-14T09:36:18.759Z,39.74
2022-10-14T09:39:24.609Z,40.03
2022-10-14T09:42:47.471Z,39.87
2022-10-14T09:46:03.376Z,40.21
2022-10-14T09:49:19.064Z,36.57
2022-10-14T09:52:29.391Z,37.16
2022-10-14T09:55:36.379Z,37.55
2022-10-14T09:58:51.149Z,35.12
2022-10-14T10:02:04.177Z,34.58
2022-10-14T10:05:25.521Z,33.64
2022-10-14T10:08:31.349Z,32.65
2022-10-14T10:11:40.291Z,31.16
2022-10-14T10:15:03.937Z,31.05
2022-10-14T10:18:22.427Z,30.89
2022-10-14T10:21:33.310Z,29.32
2022-10-14T10:24:39.058Z,29.15
2022-10-14T10:27:48.104Z,28.99
2022-10-14T10:31:22.148Z,29.34
2022-10-14T10:35:07.141Z,30.39
2022-10-14T10:38:31.117Z,30.59
2022-10-14T10:42:02.659Z,28.93
2022-10-14T10:45:36.833Z,29.62
2022-10-14T10:48:51.372Z,30.97
2022-10-14T10:52:17.363Z,29.46
2022-10-14T10:55:42.557Z,30.26
2022-10-14T10:59:12.301Z,29.18
2022-10-14T11:03:13.768Z,31.35
2022-10-14T11:06:58.454Z,32.31
2022-10-14T11:10:39.781Z,32.72
2022-10-14T11:13:58.673Z,30.64
2022-10-14T11:17:21.173Z,29.36
2022-10-14T11:20:50.000Z,30.78
2022-10-14T11:24:11.839Z,30.89
2022-10-14T11:27:34.492Z,29.94
2022-10-14T11:30:53.318Z,31.41
2022-10-14T11:34:22.996Z,32.03
2022-10-14T11:37:52.512Z,30.77
2022-10-14T11:41:19.392Z,29.13
2022-10-14T11:44:38.988Z,28.85
2022-10-14T11:47:53.019Z,27.72
2022-10-14T11:51:11.560Z,25.74
2022-10-14T11:54:28.823Z,26.52
2022-10-14T11:57:45.752Z,25.87
2022-10-14T12:01:02.857Z,25.99
2022-10-14T12:04:29.228Z,24.51
2022-10-14T12:07:48.082Z,25.67
2022-10-14T12:11:02.303Z,27.08
2022-10-14T12:14:19.624Z,28.15
2022-10-14T12:17:39.068Z,25.93
2022-10-14T12:20:58.342Z,26.93
2022-10-14T12:24:18.316Z,28.84
2022-10-14T12:30:45.041Z,28.30
2022-10-14T12:34:39.086Z,25.28
2022-10-14T12:37:54.515Z,25.34
2022-10-14T12:41:40.976Z,25.95
2022-10-14T12:44:56.299Z,24.66
2022-10-14T12:48:11.014Z,23.73
2022-10-14T12:51:25.320Z,24.81
2022-10-14T12:54:40.477Z,24.89
2022-10-14T12:57:47.155Z,26.05
2022-10-14T13:01:05.130Z,27.15
2022-10-14T13:04:21.327Z,27.37
2022-10-14T13:07:50.781Z,26.68
2022-10-14T13:11:16.854Z,26.60
2022-10-14T13:14:30.111Z,25.00
2022-10-14T13:17:49.654Z,26.39
2022-10-14T13:20:56.789Z,27.63
2022-10-14T13:24:15.718Z,25.14
2022-10-14T13:27:43.630Z,24.77
2022-10-14T13:31:07.715Z,26.27
2022-10-14T13:34:32.893Z,26.91
2022-10-14T13:37:45.978Z,27.56
2022-10-14T13:40:59.614Z,27.68
2022-10-14T13:44:09.059Z,27.55
2022-10-14T13:47:17.342Z,27.37
2022-10-14T13:50:36.417Z,28.56
2022-10-14T13:53:54.630Z,28.37
2022-10-14T13:57:38.183Z,31.34
2022-10-14T14:00:42.712Z,29.62
2022-10-14T14:03:56.376Z,28.55
2022-10-14T14:07:59.143Z,28.56
2022-10-14T14:10:36.361Z,29.10
2022-10-14T14:14:06.224Z,30.30
2022-10-14T14:17:22.254Z,29.87
2022-10-14T14:20:34.144Z,27.15
2022-10-14T14:23:39.722Z,27.26
2022-10-14T14:26:45.366Z,26.07
2022-10-14T14:29:57.973Z,25.57
2022-10-14T14:33:09.712Z,26.24
2022-10-14T14:36:27.471Z,26.04
2022-10-14T14:39:34.023Z,26.53
2022-10-14T14:42:43.503Z,25.31
2022-10-14T14:45:51.848Z,27.13
2022-10-14T14:49:00.682Z,35.40
2022-10-14T14:52:09.201Z,32.32
2022-10-14T14:55:40.968Z,27.74
2022-10-14T14:58:53.114Z,29.11
2022-10-14T15:02:06.075Z,32.14
2022-10-14T15:05:14.738Z,34.89
2022-10-14T15:08:27.542Z,34.17
2022-10-14T15:11:34.665Z,34.86
2022-10-14T15:14:52.826Z,34.52
2022-10-14T15:18:18.685Z,34.07
2022-10-14T15:21:31.944Z,33.33
2022-10-14T15:24:37.703Z,34.09
2022-10-14T15:27:55.692Z,34.19
2022-10-14T15:31:05.568Z,33.59
2022-10-14T15:34:23.365Z,33.50
2022-10-14T15:37:35.831Z,31.60
2022-10-14T15:40:43.180Z,31.83
2022-10-14T15:43:49.813Z,31.31
2022-10-14T15:47:07.866Z,32.34
2022-10-14T15:50:26.297Z,38.22
2022-10-14T15:53:32.323Z,42.18
2022-10-14T15:56:40.145Z,42.76
2022-10-14T15:59:46.532Z,35.97
2022-10-14T16:02:59.237Z,38.25
2022-10-14T16:06:09.466Z,58.13
2022-10-14T16:09:15.969Z,49.16
2022-10-14T16:12:21.989Z,39.78
2022-10-14T16:15:38.941Z,37.41
2022-10-14T16:18:46.590Z,38.40
2022-10-14T16:21:58.529Z,42.01
2022-10-14T16:25:04.320Z,39.65
2022-10-14T16:28:10.713Z,39.73
2022-10-14T16:31:18.339Z,39.98
2022-10-14T16:34:26.943Z,44.41
2022-10-14T16:37:35.971Z,45.39
2022-10-14T16:40:42.020Z,46.98
2022-10-14T16:43:48.389Z,50.39
2022-10-14T16:47:11.101Z,50.24
2022-10-14T16:50:16.845Z,48.49
2022-10-14T16:53:38.788Z,49.23
2022-10-14T16:56:57.182Z,51.16
2022-10-14T17:00:02.969Z,53.35
2022-10-14T17:03:17.535Z,53.08
2022-10-14T17:06:26.080Z,51.79
2022-10-14T17:09:35.657Z,54.61
2022-10-14T17:12:42.522Z,56.83
2022-10-14T17:15:48.266Z,54.16
2022-10-14T17:18:54.081Z,54.53
2022-10-14T17:21:59.772Z,53.46
2022-10-14T17:25:10.863Z,57.58
2022-10-14T17:28:16.609Z,62.70
2022-10-14T17:31:26.187Z,60.15
2022-10-14T17:34:32.054Z,59.14
2022-10-14T17:37:42.648Z,58.04
2022-10-14T17:40:53.307Z,64.73
2022-10-14T17:44:13.768Z,67.57
2022-10-14T17:47:20.254Z,62.08
2022-10-14T17:50:27.286Z,53.27
2022-10-14T17:53:34.085Z,56.96
2022-10-14T17:56:47.358Z,56.87
2022-10-14T17:59:53.012Z,57.03
2022-10-14T18:02:59.673Z,56.32
2022-10-14T18:06:16.354Z,70.04
2022-10-14T18:09:22.212Z,110.14
2022-10-14T18:12:30.646Z,81.90
2022-10-14T18:15:36.738Z,71.38
2022-10-14T18:18:44.983Z,68.34
2022-10-14T18:21:51.835Z,87.39
2022-10-14T18:24:57.463Z,110.21
2022-10-14T18:28:20.324Z,117.50
2022-10-14T18:31:29.815Z,89.41
2022-10-14T18:34:35.688Z,76.29
2022-10-14T18:37:41.296Z,74.92
2022-10-14T18:40:49.267Z,68.67
2022-10-14T18:44:00.661Z,65.74
2022-10-14T18:47:08.817Z,66.11
2022-10-14T18:50:27.455Z,66.23
2022-10-14T18:53:36.162Z,61.66
2022-10-14T18:56:42.494Z,56.26
2022-10-14T18:59:52.930Z,57.23
2022-10-14T19:02:58.754Z,58.81
2022-10-14T19:06:05.414Z,56.95
2022-10-14T19:09:29.763Z,63.96
2022-10-14T19:12:48.128Z,61.03
2022-10-14T19:16:03.484Z,58.17
2022-10-14T19:19:15.279Z,56.58
2022-10-14T19:22:21.219Z,57.04
2022-10-14T19:25:27.179Z,62.62
2022-10-14T19:28:32.816Z,65.63
2022-10-14T19:31:46.177Z,68.47
2022-10-14T19:34:51.740Z,68.18
2022-10-14T19:37:57.336Z,68.88
2022-10-14T19:41:11.528Z,67.44
2022-10-14T19:44:25.649Z,61.21
2022-10-14T19:47:35.839Z,55.99
2022-10-14T19:50:44.307Z,51.56
2022-10-14T19:53:49.972Z,51.07
2022-10-14T19:56:55.588Z,48.73
2022-10-14T20:00:01.222Z,50.33
2022-10-14T20:03:29.643Z,48.53
2022-10-14T20:06:38.731Z,49.52
2022-10-14T20:09:49.074Z,49.37
2022-10-14T20:12:56.588Z,53.58
2022-10-14T20:16:05.134Z,56.89
2022-10-14T20:19:18.486Z,61.52
2022-10-14T20:22:24.582Z,65.13
2022-10-14T20:25:30.458Z,62.71
2022-10-14T20:28:45.915Z,61.21
2022-10-14T20:31:54.638Z,57.52
2022-10-14T20:35:18.762Z,54.80
2022-10-14T20:38:24.730Z,53.63
2022-10-14T20:41:30.578Z,52.52
2022-10-14T20:48:04.614Z,54.18
2022-10-14T20:51:18.429Z,56.90
2022-10-14T20:54:26.380Z,61.54
2022-10-14T20:57:32.255Z,61.29
2022-10-14T21:00:37.884Z,63.37
2022-10-14T21:03:53.446Z,64.34
2022-10-14T21:07:04.994Z,63.34
2022-10-14T21:10:12.068Z,66.05
2022-10-14T21:13:27.250Z,70.29
2022-10-14T21:16:37.310Z,73.85
2022-10-14T21:19:42.897Z,68.17
2022-10-14T21:22:51.069Z,63.00
2022-10-14T21:26:01.300Z,63.74
2022-10-14T21:29:08.222Z,68.35
2022-10-14T21:32:16.270Z,68.99
2022-10-14T21:35:21.812Z,71.90
2022-10-14T21:38:32.174Z,76.51
2022-10-14T21:41:38.316Z,69.40
2022-10-14T21:44:43.845Z,68.84
2022-10-14T21:47:52.968Z,65.75
2022-10-14T21:51:12.623Z,69.47
2022-10-14T21:54:26.290Z,66.48
2022-10-14T21:57:31.901Z,66.83
2022-10-14T22:00:41.330Z,70.94
2022-10-14T22:03:48.066Z,71.47
2022-10-14T22:06:58.154Z,71.84
2022-10-14T22:10:29.923Z,72.53
2022-10-14T22:13:39.888Z,73.78
2022-10-14T22:16:45.510Z,74.58
2022-10-14T22:19:51.072Z,71.90
2022-10-14T22:22:59.076Z,64.91
2022-10-14T22:26:08.797Z,62.89
2022-10-14T22:29:18.575Z,63.03
2022-10-14T22:32:24.130Z,70.59
2022-10-14T22:35:29.716Z,70.66
2022-10-14T22:38:44.642Z,67.68
2022-10-14T22:41:53.907Z,66.62
2022-10-14T22:44:59.609Z,66.47
2022-10-14T22:48:05.232Z,70.97
2022-10-14T22:51:14.416Z,72.36
2022-10-14T22:54:20.138Z,72.34
2022-10-14T22:57:28.391Z,70.68
2022-10-14T23:00:34.426Z,71.55
2022-10-14T23:03:41.155Z,72.41
2022-10-14T23:06:49.573Z,74.24
2022-10-14T23:09:55.072Z,74.59
2022-10-14T23:13:19.893Z,79.25
2022-10-14T23:16:29.155Z,80.63
2022-10-14T23:19:34.899Z,78.39
2022-10-14T23:22:40.969Z,77.07
2022-10-14T23:25:50.562Z,76.83
2022-10-14T23:29:04.966Z,74.02
2022-10-14T23:32:10.647Z,72.37
2022-10-14T23:35:18.776Z,69.76
2022-10-14T23:38:24.422Z,75.55
2022-10-14T23:41:36.676Z,81.72
2022-10-14T23:44:49.492Z,74.13
2022-10-14T23:47:55.004Z,70.14
2022-10-14T23:51:00.915Z,69.62
2022-10-14T23:54:09.228Z,71.29
2022-10-14T23:57:17.888Z,71.39
